createdAt,value
2022-12-03T00:01:36.270Z,100749.66
2022-12-03T00:04:25.576Z,100752.62
2022-12-03T00:07:22.746Z,100754.86
2022-12-03T00:10:10.253Z,100752.11
2022-12-03T00:13:26.838Z,100755.90
2022-12-03T00:16:26.254Z,100754.14
2022-12-03T00:19:17.244Z,100752.74
2022-12-03T00:21:57.947Z,100754.83
2022-12-03T00:24:42.378Z,100753.96
2022-12-03T00:27:34.136Z,100751.70
2022-12-03T00:30:14.314Z,100752.05
2022-12-03T00:33:02.246Z,100750.86
2022-12-03T00:35:41.597Z,100755.51
2022-12-03T00:38:26.657Z,100752.73
2022-12-03T00:41:16.791Z,100750.30
2022-12-03T00:44:17.898Z,100751.33
2022-12-03T00:47:14.047Z,100745.92
2022-12-03T00:50:12.799Z,100746.94
2022-12-03T00:52:55.622Z,100748.52
2022-12-03T00:55:38.900Z,100744.86
2022-12-03T00:58:29.937Z,100749.56
2022-12-03T01:01:22.701Z,100743.98
2022-12-03T01:04:19.305Z,100749.52
2022-12-03T01:07:12.444Z,100749.14
2022-12-03T01:09:57.690Z,100747.25
2022-12-03T01:12:50.781Z,100750.89
2022-12-03T01:15:38.110Z,100748.83
2022-12-03T01:18:22.234Z,100750.90
2022-12-03T01:21:15.172Z,100753.16
2022-12-03T01:23:56.520Z,100753.67
2022-12-03T01:26:34.230Z,100754.92
2022-12-03T01:29:16.014Z,100755.25
2022-12-03T01:32:14.941Z,100754.21
2022-12-03T01:34:54.275Z,100754.20
2022-12-03T01:37:36.592Z,100754.73
2022-12-03T01:40:28.033Z,100756.98
2022-12-03T01:43:07.876Z,100755.61
2022-12-03T01:45:45.793Z,100759.59
2022-12-03T01:48:20.433Z,100759.42
2022-12-03T01:50:52.833Z,100761.16
2022-12-03T01:53:45.693Z,100762.03
2022-12-03T01:56:22.367Z,100762.20
2022-12-03T01:58:58.305Z,100763.77
2022-12-03T02:01:36.341Z,100768.96
2022-12-03T02:04:09.574Z,100766.90
2022-12-03T02:06:53.834Z,100767.44
2022-12-03T02:09:54.385Z,100771.24
2022-12-03T02:12:39.630Z,100771.23
2022-12-03T02:15:24.244Z,100771.77
2022-12-03T02:18:04.837Z,100771.77
2022-12-03T02:20:59.417Z,100769.49
2022-12-03T02:23:56.370Z,100758.57
2022-12-03T02:26:36.291Z,100764.28
2022-12-03T02:29:20.460Z,100757.02
2022-12-03T02:32:13.109Z,100758.05
2022-12-03T02:35:04.481Z,100755.09
2022-12-03T02:37:44.626Z,100753.91
2022-12-03T02:40:30.664Z,100751.83
2022-12-03T02:43:11.749Z,100753.58
2022-12-03T02:45:50.070Z,100754.13
2022-12-03T02:48:42.914Z,100752.41
2022-12-03T02:51:25.970Z,100750.38
2022-12-03T02:54:01.340Z,100753.36
2022-12-03T02:56:40.281Z,100753.40
2022-12-03T02:59:11.649Z,100755.20
2022-12-03T03:01:44.928Z,100755.21
2022-12-03T03:04:20.310Z,100755.58
2022-12-03T03:06:57.411Z,100757.35
2022-12-03T03:09:37.375Z,100757.71
2022-12-03T03:12:23.345Z,100761.73
2022-12-03T03:15:06.982Z,100757.96
2022-12-03T03:17:38.567Z,100761.80
2022-12-03T03:20:13.670Z,100759.73
2022-12-03T03:22:54.185Z,100754.20
2022-12-03T03:25:29.455Z,100755.92
2022-12-03T03:28:07.364Z,100756.48
2022-12-03T03:30:42.479Z,100755.45
2022-12-03T03:33:17.067Z,100756.86
2022-12-03T03:35:49.709Z,100754.79
2022-12-03T03:38:24.895Z,100755.48
2022-12-03T03:40:56.816Z,100755.14
2022-12-03T03:43:27.882Z,100758.27
2022-12-03T03:45:59.115Z,100756.87
2022-12-03T03:48:28.511Z,100759.45
2022-12-03T03:50:59.813Z,100758.21
2022-12-03T03:53:31.498Z,100756.66
2022-12-03T03:56:02.558Z,100758.20
2022-12-03T03:58:34.096Z,100760.09
2022-12-03T04:01:06.655Z,100753.13
2022-12-03T04:03:38.023Z,100751.70
2022-12-03T04:06:07.486Z,100749.95
2022-12-03T04:08:38.571Z,100754.45
2022-12-03T04:11:28.217Z,100753.05
2022-12-03T04:13:58.990Z,100750.77
2022-12-03T04:16:30.167Z,100751.46
2022-12-03T04:19:01.568Z,100751.63
2022-12-03T04:21:50.083Z,100747.63
2022-12-03T04:24:22.492Z,100747.79
2022-12-03T04:27:10.690Z,100748.31
2022-12-03T04:29:42.370Z,100747.41
2022-12-03T04:32:31.256Z,100750.89
2022-12-03T04:35:19.361Z,100752.11
2022-12-03T04:37:50.186Z,100749.15
2022-12-03T04:40:34.511Z,100746.00
2022-12-03T04:43:05.116Z,100743.03
2022-12-03T04:45:37.591Z,100742.36
2022-12-03T04:48:08.880Z,100731.93
2022-12-03T04:50:39.488Z,100734.03
2022-12-03T04:53:10.020Z,100732.98
2022-12-03T04:55:40.528Z,100737.85
2022-12-03T04:58:13.463Z,100741.86
2022-12-03T05:00:49.792Z,100741.84
2022-12-03T05:03:28.491Z,100744.98
2022-12-03T05:06:01.743Z,100744.11
2022-12-03T05:08:34.136Z,100743.06
2022-12-03T05:11:05.126Z,100741.17
2022-12-03T05:13:35.925Z,100735.42
2022-12-03T05:16:07.514Z,100733.69
2022-12-03T05:18:40.057Z,100735.79
2022-12-03T05:21:11.302Z,100737.90
2022-12-03T05:23:42.653Z,100738.94
2022-12-03T05:26:14.527Z,100736.66
2022-12-03T05:28:45.771Z,100739.98
2022-12-03T05:31:26.429Z,100734.95
2022-12-03T05:34:00.353Z,100732.69
2022-12-03T05:36:52.788Z,100730.77
2022-12-03T05:39:32.345Z,100725.91
2022-12-03T05:42:20.897Z,100725.41
2022-12-03T05:44:54.660Z,100729.44
2022-12-03T05:47:29.190Z,100732.40
2022-12-03T05:50:01.466Z,100738.48
2022-12-03T05:52:34.366Z,100735.20
2022-12-03T05:55:09.306Z,100724.66
2022-12-03T05:57:41.683Z,100730.55
2022-12-03T06:00:18.559Z,100730.23
2022-12-03T06:02:49.614Z,100732.85
2022-12-03T06:05:21.459Z,100732.03
2022-12-03T06:07:53.931Z,100732.08
2022-12-03T06:10:26.236Z,100728.46
2022-12-03T06:12:57.132Z,100726.93
2022-12-03T06:15:28.366Z,100723.50
2022-12-03T06:17:57.426Z,100724.06
2022-12-03T06:20:27.920Z,100725.15
2022-12-03T06:22:58.425Z,100726.59
2022-12-03T06:25:28.925Z,100722.30
2022-12-03T06:27:59.406Z,100724.23
2022-12-03T06:30:29.874Z,100726.71
2022-12-03T06:33:01.627Z,100727.11
2022-12-03T06:35:32.052Z,100727.17
2022-12-03T06:38:02.546Z,100721.30
2022-12-03T06:40:33.055Z,100719.42
2022-12-03T06:43:03.544Z,100722.77
2022-12-03T06:45:34.556Z,100720.21
2022-12-03T06:48:05.192Z,100715.21
2022-12-03T06:50:35.979Z,100710.91
2022-12-03T06:53:06.488Z,100710.79
2022-12-03T06:55:37.052Z,100711.17
2022-12-03T06:58:07.747Z,100711.03
2022-12-03T07:00:38.349Z,100714.17
2022-12-03T07:03:09.071Z,100715.23
2022-12-03T07:05:39.869Z,100722.20
2022-12-03T07:08:10.847Z,100726.20
2022-12-03T07:14:35.778Z,100738.56
2022-12-03T07:17:05.058Z,100738.40
2022-12-03T07:19:36.307Z,100751.91
2022-12-03T07:22:07.913Z,100757.11
2022-12-03T07:24:39.371Z,100756.06
2022-12-03T07:27:10.482Z,100760.55
2022-12-03T07:29:41.134Z,100760.20
2022-12-03T07:32:11.657Z,100757.74
2022-12-03T07:34:42.174Z,100755.30
2022-12-03T07:37:12.972Z,100753.72
2022-12-03T07:39:42.622Z,100752.15
2022-12-03T07:42:12.965Z,100751.63
2022-12-03T07:44:43.395Z,100747.64
2022-12-03T07:47:13.880Z,100748.84
2022-12-03T07:49:44.446Z,100750.92
2022-12-03T07:52:14.813Z,100752.98
2022-12-03T07:54:45.621Z,100746.92
2022-12-03T07:57:16.005Z,100745.67
2022-12-03T07:59:46.424Z,100743.91
2022-12-03T08:02:21.237Z,100746.48
2022-12-03T08:04:52.842Z,100747.13
2022-12-03T08:07:24.134Z,100747.94
2022-12-03T08:09:54.696Z,100750.85
2022-12-03T08:12:40.115Z,100747.84
2022-12-03T08:15:16.264Z,100743.08
2022-12-03T08:17:48.848Z,100744.58
2022-12-03T08:20:21.831Z,100743.11
2022-12-03T08:22:54.388Z,100733.64
2022-12-03T08:25:26.611Z,100725.77
2022-12-03T08:28:03.724Z,100722.23
2022-12-03T08:30:34.117Z,100725.30
2022-12-03T08:33:07.617Z,100723.20
2022-12-03T08:35:37.995Z,100728.19
2022-12-03T08:38:14.108Z,100725.67
2022-12-03T08:40:47.481Z,100725.56
2022-12-03T08:43:22.322Z,100721.64
2022-12-03T08:45:54.153Z,100722.55
2022-12-03T08:48:36.795Z,100729.05
2022-12-03T08:51:16.855Z,100734.10
2022-12-03T08:53:49.699Z,100733.23
2022-12-03T08:56:25.570Z,100733.44
2022-12-03T08:58:59.352Z,100735.39
2022-12-03T09:01:42.591Z,100734.91
2022-12-03T09:04:38.252Z,100731.46
2022-12-03T09:07:08.629Z,100734.61
2022-12-03T09:09:39.743Z,100734.48
2022-12-03T09:12:10.339Z,100730.53
2022-12-03T09:14:40.835Z,100730.28
2022-12-03T09:17:11.354Z,100724.42
2022-12-03T09:19:46.046Z,100719.49
2022-12-03T09:22:17.405Z,100708.39
2022-12-03T09:24:47.814Z,100704.84
2022-12-03T09:27:18.245Z,100698.91
2022-12-03T09:29:48.855Z,100700.46
2022-12-03T09:32:19.421Z,100700.50
2022-12-03T09:34:49.868Z,100699.82
2022-12-03T09:37:21.484Z,100702.92
2022-12-03T09:39:51.888Z,100701.71
2022-12-03T09:42:22.507Z,100701.52
2022-12-03T09:44:53.734Z,100699.70
2022-12-03T09:47:22.900Z,100702.63
2022-12-03T09:49:54.605Z,100705.01
2022-12-03T09:52:30.068Z,100703.02
2022-12-03T09:55:01.454Z,100700.84
2022-12-03T09:57:30.230Z,100705.26
2022-12-03T10:00:01.286Z,100702.52
2022-12-03T10:02:34.240Z,100693.48
2022-12-03T10:05:04.746Z,100691.45
2022-12-03T10:07:35.495Z,100691.73
2022-12-03T10:10:08.765Z,100690.83
2022-12-03T10:12:39.244Z,100686.02
2022-12-03T10:15:14.477Z,100684.80
2022-12-03T10:17:46.752Z,100689.64
2022-12-03T10:20:20.092Z,100682.58
2022-12-03T10:22:50.832Z,100680.92
2022-12-03T10:25:23.734Z,100675.06
2022-12-03T10:28:02.056Z,100668.52
2022-12-03T10:30:32.898Z,100662.83
2022-12-03T10:33:18.906Z,100667.44
2022-12-03T10:35:50.004Z,100662.27
2022-12-03T10:38:23.683Z,100655.76
2022-12-03T10:40:54.508Z,100659.33
2022-12-03T10:43:26.544Z,100664.14
2022-12-03T10:46:18.164Z,100656.88
2022-12-03T10:49:08.494Z,100651.72
2022-12-03T10:51:40.361Z,100647.30
2022-12-03T10:54:19.090Z,100648.15
2022-12-03T10:56:51.639Z,100644.30
2022-12-03T10:59:24.529Z,100640.98
2022-12-03T11:01:55.175Z,100638.20
2022-12-03T11:04:30.276Z,100637.86
2022-12-03T11:07:02.928Z,100625.77
2022-12-03T11:09:34.627Z,100616.72
2022-12-03T11:12:09.102Z,100610.33
2022-12-03T11:15:07.796Z,100610.23
2022-12-03T11:17:52.536Z,100609.11
2022-12-03T11:20:56.849Z,100606.33
2022-12-03T11:23:58.170Z,100605.16
2022-12-03T11:27:03.624Z,100606.53
2022-12-03T11:29:58.731Z,100597.81
2022-12-03T11:33:07.336Z,100597.31
2022-12-03T11:36:15.287Z,100596.97
2022-12-03T11:38:58.677Z,100599.95
2022-12-03T11:41:35.098Z,100601.92
2022-12-03T11:44:20.855Z,100602.67
2022-12-03T11:46:51.570Z,100597.29
2022-12-03T11:49:34.346Z,100598.04
2022-12-03T11:52:20.151Z,100597.70
2022-12-03T11:54:54.387Z,100594.22
2022-12-03T11:57:38.002Z,100594.52
2022-12-03T12:00:20.499Z,100592.89
2022-12-03T12:02:51.964Z,100587.27
2022-12-03T12:05:23.562Z,100582.04
2022-12-03T12:07:52.984Z,100583.27
2022-12-03T12:10:42.637Z,100581.38
2022-12-03T12:13:57.121Z,100581.39
2022-12-03T12:16:43.090Z,100576.15
2022-12-03T12:19:43.449Z,100571.48
2022-12-03T12:22:20.695Z,100571.46
2022-12-03T12:24:53.972Z,100569.86
2022-12-03T12:27:30.907Z,100567.58
2022-12-03T12:30:02.807Z,100565.66
2022-12-03T12:32:35.368Z,100566.36
2022-12-03T12:35:18.009Z,100562.52
2022-12-03T12:37:58.939Z,100558.68
2022-12-03T12:40:33.622Z,100553.61
2022-12-03T12:43:14.139Z,100554.80
2022-12-03T12:45:47.028Z,100552.29
2022-12-03T12:48:25.369Z,100550.48
2022-12-03T12:51:01.543Z,100548.21
2022-12-03T12:53:34.362Z,100543.84
2022-12-03T12:56:24.244Z,100542.59
2022-12-03T12:58:55.790Z,100542.05
2022-12-03T13:01:30.670Z,100542.20
2022-12-03T13:04:02.961Z,100547.07
2022-12-03T13:06:35.553Z,100541.06
2022-12-03T13:09:10.539Z,100536.08
2022-12-03T13:11:45.747Z,100536.80
2022-12-03T13:14:22.672Z,100533.17
2022-12-03T13:16:55.661Z,100534.96
2022-12-03T13:19:28.035Z,100533.71
2022-12-03T13:22:01.799Z,100536.99
2022-12-03T13:24:37.015Z,100531.27
2022-12-03T13:27:26.692Z,100529.77
2022-12-03T13:30:01.445Z,100527.20
2022-12-03T13:32:35.222Z,100527.55
2022-12-03T13:35:09.228Z,100526.38
2022-12-03T13:37:40.956Z,100523.27
2022-12-03T13:40:25.172Z,100525.52
2022-12-03T13:42:55.672Z,100525.70
2022-12-03T13:45:36.037Z,100529.22
2022-12-03T13:48:22.912Z,100523.72
2022-12-03T13:50:54.619Z,100525.70
2022-12-03T13:53:27.826Z,100523.52
2022-12-03T13:56:04.441Z,100523.21
2022-12-03T13:58:34.851Z,100515.81
2022-12-03T14:01:05.388Z,100514.88
2022-12-03T14:03:36.066Z,100516.19
2022-12-03T14:06:06.819Z,100515.67
2022-12-03T14:08:37.269Z,100512.41
2022-12-03T14:11:08.005Z,100512.59
2022-12-03T14:13:38.383Z,100510.34
2022-12-03T14:16:10.328Z,100507.56
2022-12-03T14:18:40.848Z,100506.72
2022-12-03T14:21:11.209Z,100511.29
2022-12-03T14:23:41.593Z,100508.00
2022-12-03T14:26:12.104Z,100505.20
2022-12-03T14:28:42.439Z,100510.29
2022-12-03T14:31:12.951Z,100509.48
2022-12-03T14:33:43.401Z,100516.72
2022-12-03T14:36:13.906Z,100514.15
2022-12-03T14:38:44.347Z,100517.02
2022-12-03T14:41:32.997Z,100515.98
2022-12-03T14:44:03.415Z,100520.42
2022-12-03T14:46:36.626Z,100516.98
2022-12-03T14:49:07.040Z,100517.39
2022-12-03T14:51:37.425Z,100520.59
2022-12-03T14:54:09.146Z,100524.80
2022-12-03T14:56:39.729Z,100531.28
2022-12-03T14:59:10.115Z,100528.00
2022-12-03T15:01:40.830Z,100522.48
2022-12-03T15:04:11.586Z,100523.92
2022-12-03T15:06:42.007Z,100524.30
2022-12-03T15:09:12.761Z,100521.39
2022-12-03T15:11:46.360Z,100524.89
2022-12-03T15:14:17.444Z,100526.34
2022-12-03T15:16:47.759Z,100525.85
2022-12-03T15:19:18.281Z,100528.14
2022-12-03T15:21:48.789Z,100527.45
2022-12-03T15:24:19.396Z,100528.66
2022-12-03T15:26:52.270Z,100530.42
2022-12-03T15:29:23.101Z,100533.23
2022-12-03T15:31:53.501Z,100533.77
2022-12-03T15:34:23.917Z,100534.80
2022-12-03T15:36:54.294Z,100530.33
2022-12-03T15:39:25.836Z,100532.44
2022-12-03T15:41:56.092Z,100531.23
2022-12-03T15:44:26.536Z,100528.83
2022-12-03T15:46:56.955Z,100523.44
2022-12-03T15:49:27.412Z,100521.70
2022-12-03T15:51:57.821Z,100520.33
2022-12-03T15:54:28.313Z,100521.88
2022-12-03T15:56:58.928Z,100521.18
2022-12-03T15:59:29.707Z,100521.17
2022-12-03T16:02:00.221Z,100513.35
2022-12-03T16:04:30.645Z,100515.27
2022-12-03T16:07:01.216Z,100510.40
2022-12-03T16:09:31.722Z,100511.80
2022-12-03T16:12:02.658Z,100513.70
2022-12-03T16:14:33.394Z,100509.73
2022-12-03T16:17:03.768Z,100510.61
2022-12-03T16:19:34.861Z,100509.41
2022-12-03T16:22:05.409Z,100505.05
2022-12-03T16:24:36.037Z,100506.12
2022-12-03T16:27:06.786Z,100507.01
2022-12-03T16:29:37.584Z,100505.44
2022-12-03T16:32:08.413Z,100502.65
2022-12-03T16:34:38.820Z,100502.31
2022-12-03T16:37:10.420Z,100503.70
2022-12-03T16:39:48.090Z,100506.15
2022-12-03T16:42:18.493Z,100510.85
2022-12-03T16:45:15.413Z,100507.88
2022-12-03T16:47:46.269Z,100507.35
2022-12-03T16:50:24.481Z,100511.17
2022-12-03T16:52:59.569Z,100511.88
2022-12-03T16:55:29.983Z,100509.79
2022-12-03T16:58:00.496Z,100505.10
2022-12-03T17:00:31.052Z,100505.45
2022-12-03T17:03:01.488Z,100507.37
2022-12-03T17:05:32.008Z,100501.66
2022-12-03T17:08:02.664Z,100500.98
2022-12-03T17:10:33.460Z,100497.67
2022-12-03T17:13:11.340Z,100497.15
2022-12-03T17:15:42.493Z,100493.35
2022-12-03T17:18:13.040Z,100494.58
2022-12-03T17:20:43.568Z,100494.60
2022-12-03T17:23:14.026Z,100489.58
2022-12-03T17:25:44.509Z,100490.08
2022-12-03T17:28:14.972Z,100493.44
2022-12-03T17:30:45.954Z,100489.45
2022-12-03T17:33:16.406Z,100490.16
2022-12-03T17:35:46.897Z,100490.85
2022-12-03T17:38:17.191Z,100489.48
2022-12-03T17:40:47.580Z,100488.59
2022-12-03T17:43:17.945Z,100486.02
2022-12-03T17:45:48.406Z,100487.57
2022-12-03T17:48:18.832Z,100490.72
2022-12-03T17:50:50.132Z,100494.21
2022-12-03T17:53:20.554Z,100491.42
2022-12-03T17:55:50.889Z,100489.36
2022-12-03T17:58:21.573Z,100489.20
2022-12-03T18:00:53.258Z,100490.63
2022-12-03T18:03:26.877Z,100486.62
2022-12-03T18:05:57.396Z,100487.14
2022-12-03T18:08:27.712Z,100483.70
2022-12-03T18:10:58.113Z,100478.84
2022-12-03T18:13:28.936Z,100477.98
2022-12-03T18:15:58.506Z,100477.14
2022-12-03T18:18:28.906Z,100474.75
2022-12-03T18:21:02.027Z,100475.98
2022-12-03T18:23:33.063Z,100478.77
2022-12-03T18:26:04.797Z,100474.59
2022-12-03T18:28:35.331Z,100474.41
2022-12-03T18:31:12.681Z,100471.12
2022-12-03T18:33:43.383Z,100473.73
2022-12-03T18:36:18.912Z,100473.05
2022-12-03T18:38:52.141Z,100476.02
2022-12-03T18:41:24.024Z,100472.71
2022-12-03T18:43:54.580Z,100474.05
2022-12-03T18:46:51.636Z,100474.61
2022-12-03T18:49:15.441Z,100471.67
2022-12-03T18:51:45.933Z,100469.92
2022-12-03T18:54:16.766Z,100468.71
2022-12-03T18:56:47.436Z,100466.45
2022-12-03T18:59:17.903Z,100467.50
2022-12-03T19:01:48.422Z,100462.97
2022-12-03T19:04:18.893Z,100460.36
2022-12-03T19:06:49.361Z,100465.96
2022-12-03T19:09:20.077Z,100465.61
2022-12-03T19:11:50.582Z,100459.34
2022-12-03T19:14:21.066Z,100452.71
2022-12-03T19:16:52.198Z,100453.98
2022-12-03T19:19:27.149Z,100454.71
2022-12-03T19:21:58.121Z,100458.39
2022-12-03T19:24:29.110Z,100464.67
2022-12-03T19:26:59.853Z,100463.64
2022-12-03T19:29:30.282Z,100460.72
2022-12-03T19:32:01.052Z,100462.31
2022-12-03T19:34:31.942Z,100464.92
2022-12-03T19:37:02.479Z,100469.44
2022-12-03T19:39:33.241Z,100467.88
2022-12-03T19:42:03.805Z,100472.05
2022-12-03T19:44:34.238Z,100477.80
2022-12-03T19:47:04.819Z,100479.41
2022-12-03T19:49:35.480Z,100482.38
2022-12-03T19:52:07.404Z,100474.73
2022-12-03T19:54:37.850Z,100476.49
2022-12-03T19:57:09.606Z,100474.64
2022-12-03T19:59:40.194Z,100469.09
2022-12-03T20:02:11.906Z,100469.98
2022-12-03T20:04:42.958Z,100463.77
2022-12-03T20:07:13.968Z,100463.80
2022-12-03T20:09:47.337Z,100459.11
2022-12-03T20:12:17.968Z,100457.79
2022-12-03T20:14:49.852Z,100451.05
2022-12-03T20:17:20.630Z,100452.97
2022-12-03T20:19:51.425Z,100455.62
2022-12-03T20:22:21.927Z,100458.95
2022-12-03T20:24:52.422Z,100451.64
2022-12-03T20:27:23.310Z,100457.39
2022-12-03T20:29:54.198Z,100453.39
2022-12-03T20:32:24.904Z,100456.36
2022-12-03T20:34:55.527Z,100456.17
2022-12-03T20:37:26.132Z,100451.65
2022-12-03T20:39:56.762Z,100449.39
2022-12-03T20:42:27.498Z,100448.34
2022-12-03T20:44:57.972Z,100452.57
2022-12-03T20:47:28.444Z,100455.20
2022-12-03T20:49:58.839Z,100453.89
2022-12-03T20:52:29.324Z,100453.74
2022-12-03T20:54:59.734Z,100450.31
2022-12-03T20:57:30.259Z,100450.67
2022-12-03T21:00:00.750Z,100448.42
2022-12-03T21:02:31.305Z,100448.60
2022-12-03T21:05:02.015Z,100448.25
2022-12-03T21:07:32.720Z,100452.64
2022-12-03T21:10:03.495Z,100450.56
2022-12-03T21:12:34.093Z,100447.42
2022-12-03T21:15:04.701Z,100450.04
2022-12-03T21:17:35.924Z,100442.94
2022-12-03T21:20:08.402Z,100443.45
2022-12-03T21:22:39.351Z,100443.80
2022-12-03T21:25:10.379Z,100441.22
2022-12-03T21:27:40.852Z,100434.29
2022-12-03T21:30:12.651Z,100435.17
2022-12-03T21:32:43.258Z,100437.83
2022-12-03T21:35:13.830Z,100432.27
2022-12-03T21:37:44.688Z,100429.88
2022-12-03T21:40:16.078Z,100422.95
2022-12-03T21:42:47.095Z,100424.18
2022-12-03T21:45:18.093Z,100426.79
2022-12-03T21:47:50.293Z,100426.31
2022-12-03T21:50:21.264Z,100424.43
2022-12-03T21:52:52.876Z,100426.20
2022-12-03T21:55:23.424Z,100431.48
2022-12-03T21:57:54.067Z,100438.61
2022-12-03T22:00:25.261Z,100434.77
2022-12-03T22:02:55.782Z,100439.30
2022-12-03T22:05:26.248Z,100433.92
2022-12-03T22:07:56.896Z,100437.42
2022-12-03T22:10:27.444Z,100432.08
2022-12-03T22:12:57.847Z,100435.02
2022-12-03T22:15:28.431Z,100431.05
2022-12-03T22:17:58.997Z,100428.61
2022-12-03T22:20:29.759Z,100432.27
2022-12-03T22:23:00.242Z,100428.61
2022-12-03T22:25:31.610Z,100426.88
2022-12-03T22:28:00.554Z,100426.52
2022-12-03T22:30:31.022Z,100427.23
2022-12-03T22:33:01.537Z,100427.23
2022-12-03T22:35:31.963Z,100419.43
2022-12-03T22:38:02.559Z,100416.48
2022-12-03T22:40:33.011Z,100415.63
2022-12-03T22:43:03.568Z,100417.37
2022-12-03T22:45:35.751Z,100420.34
2022-12-03T22:48:06.756Z,100424.90
2022-12-03T22:50:41.602Z,100430.50
2022-12-03T22:53:12.480Z,100435.73
2022-12-03T22:55:43.386Z,100436.08
2022-12-03T22:58:13.908Z,100436.42
2022-12-03T23:00:44.379Z,100436.25
2022-12-03T23:03:14.861Z,100428.95
2022-12-03T23:05:45.542Z,100421.98
2022-12-03T23:08:17.779Z,100408.93
2022-12-03T23:10:51.163Z,100395.73
2022-12-03T23:13:22.117Z,100385.98
2022-12-03T23:15:54.265Z,100384.08
2022-12-03T23:18:24.957Z,100380.80
2022-12-03T23:20:57.296Z,100375.80
2022-12-03T23:23:29.716Z,100375.31
2022-12-03T23:26:00.887Z,100374.11
2022-12-03T23:28:32.916Z,100381.41
2022-12-03T23:31:03.901Z,100386.96
2022-12-03T23:33:38.414Z,100387.32
2022-12-03T23:36:10.532Z,100385.44
2022-12-03T23:38:41.305Z,100383.36
2022-12-03T23:41:14.041Z,100380.06
2022-12-03T23:43:44.644Z,100376.75
2022-12-03T23:46:17.021Z,100373.10
2022-12-03T23:48:47.441Z,100372.59
2022-12-03T23:51:20.184Z,100375.73
2022-12-03T23:53:51.232Z,100377.28
2022-12-03T23:56:24.707Z,100388.21
2022-12-03T23:58:55.268Z,100387.05
